createdAt,value
2023-03-06T00:00:10.561Z,2.60
2023-03-06T00:01:18.594Z,2.70
2023-03-06T00:02:20.664Z,2.70
2023-03-06T00:03:27.665Z,2.70
2023-03-06T00:04:29.877Z,2.70
2023-03-06T00:05:34.419Z,2.70
2023-03-06T00:06:36.498Z,2.60
2023-03-06T00:07:39.690Z,2.60
2023-03-06T00:08:41.742Z,2.70
2023-03-06T00:09:44.829Z,2.60
2023-03-06T00:10:46.959Z,2.60
2023-03-06T00:11:50.058Z,2.60
2023-03-06T00:12:52.787Z,2.60
2023-03-06T00:13:55.893Z,2.50
2023-03-06T00:14:57.931Z,2.40
2023-03-06T00:16:01.886Z,2.40
2023-03-06T00:17:04.105Z,2.40
2023-03-06T00:18:07.790Z,2.40
2023-03-06T00:19:09.880Z,2.40
2023-03-06T00:20:14.360Z,2.50
2023-03-06T00:21:18.054Z,2.40
2023-03-06T00:22:21.132Z,2.50
2023-03-06T00:23:23.552Z,2.50
2023-03-06T00:24:26.615Z,2.50
2023-03-06T00:25:28.812Z,2.50
2023-03-06T00:26:31.865Z,2.50
2023-03-06T00:27:34.498Z,2.50
2023-03-06T00:28:37.749Z,2.50
2023-03-06T00:29:39.818Z,2.50
2023-03-06T00:30:43.097Z,2.50
2023-03-06T00:31:47.947Z,2.50
2023-03-06T00:32:51.793Z,2.50
2023-03-06T00:33:53.841Z,2.50
2023-03-06T00:34:57.259Z,2.50
2023-03-06T00:35:59.440Z,2.50
2023-03-06T00:37:03.888Z,2.50
2023-03-06T00:38:07.478Z,2.50
2023-03-06T00:39:10.614Z,2.50
2023-03-06T00:40:15.194Z,2.50
2023-03-06T00:41:18.268Z,2.50
2023-03-06T00:42:20.709Z,2.50
2023-03-06T00:43:23.863Z,2.50
2023-03-06T00:44:25.980Z,2.60
2023-03-06T00:45:29.193Z,2.60
2023-03-06T00:46:31.270Z,2.50
2023-03-06T00:47:34.374Z,2.60
2023-03-06T00:48:36.544Z,2.60
2023-03-06T00:49:39.786Z,2.60
2023-03-06T00:50:41.944Z,2.60
2023-03-06T00:51:45.227Z,2.60
2023-03-06T00:52:49.148Z,2.60
2023-03-06T00:53:52.278Z,2.50
2023-03-06T00:54:54.335Z,2.60
2023-03-06T00:55:57.454Z,2.50
2023-03-06T00:56:59.614Z,2.50
2023-03-06T00:58:02.756Z,2.50
2023-03-06T00:59:04.987Z,2.50
2023-03-06T01:00:10.135Z,2.60
2023-03-06T01:01:12.368Z,2.60
2023-03-06T01:02:15.985Z,2.50
2023-03-06T01:03:18.133Z,2.50
2023-03-06T01:04:22.013Z,2.50
2023-03-06T01:05:24.881Z,2.50
2023-03-06T01:06:28.084Z,2.50
2023-03-06T01:07:33.328Z,2.50
2023-03-06T01:08:37.884Z,2.50
2023-03-06T01:09:39.884Z,2.50
2023-03-06T01:10:42.953Z,2.50
2023-03-06T01:11:45.079Z,2.50
2023-03-06T01:12:48.633Z,2.50
2023-03-06T01:13:50.877Z,2.50
2023-03-06T01:14:53.992Z,2.50
2023-03-06T01:16:04.852Z,2.50
2023-03-06T01:17:07.900Z,2.50
2023-03-06T01:18:11.548Z,2.50
2023-03-06T01:19:14.834Z,2.50
2023-03-06T01:20:18.194Z,2.50
2023-03-06T01:21:21.461Z,2.40
2023-03-06T01:22:23.536Z,2.40
2023-03-06T01:23:26.595Z,2.50
2023-03-06T01:24:32.052Z,2.40
2023-03-06T01:25:35.115Z,2.40
2023-03-06T01:26:37.177Z,2.40
2023-03-06T01:27:40.222Z,2.40
2023-03-06T01:28:45.824Z,2.40
2023-03-06T01:29:48.909Z,2.40
2023-03-06T01:30:51.067Z,2.40
2023-03-06T01:31:54.808Z,2.40
2023-03-06T01:32:56.916Z,2.40
2023-03-06T01:34:00.018Z,2.40
2023-03-06T01:35:03.846Z,2.30
2023-03-06T01:36:10.310Z,2.30
2023-03-06T01:37:12.442Z,2.30
2023-03-06T01:38:15.981Z,2.30
2023-03-06T01:39:18.072Z,2.30
2023-03-06T01:40:22.978Z,2.30
2023-03-06T01:41:25.076Z,2.30
2023-03-06T01:42:28.292Z,2.30
2023-03-06T01:43:31.925Z,2.40
2023-03-06T01:44:35.333Z,2.30
2023-03-06T01:46:17.868Z,2.40
2023-03-06T01:47:21.018Z,2.40
2023-03-06T01:48:24.955Z,2.40
2023-03-06T01:49:30.722Z,2.40
2023-03-06T01:50:32.861Z,2.30
2023-03-06T01:51:39.678Z,2.30
2023-03-06T01:52:48.890Z,2.30
2023-03-06T01:53:52.353Z,2.30
2023-03-06T01:54:59.223Z,2.30
2023-03-06T01:56:02.953Z,2.30
2023-03-06T01:57:12.803Z,2.30
2023-03-06T01:58:18.221Z,2.30
2023-03-06T01:59:23.254Z,2.20
2023-03-06T02:00:27.677Z,2.30
2023-03-06T02:01:33.164Z,2.20
2023-03-06T02:02:36.187Z,2.20
2023-03-06T02:03:42.242Z,2.30
2023-03-06T02:04:44.614Z,2.30
2023-03-06T02:05:47.915Z,2.20
2023-03-06T02:06:50.717Z,2.20
2023-03-06T02:07:55.317Z,2.20
2023-03-06T02:08:57.503Z,2.20
2023-03-06T02:10:00.848Z,2.20
2023-03-06T02:11:12.472Z,2.20
2023-03-06T02:12:20.126Z,2.20
2023-03-06T02:13:22.324Z,2.20
2023-03-06T02:14:28.680Z,2.20
2023-03-06T02:15:31.379Z,2.20
2023-03-06T02:16:35.169Z,2.20
2023-03-06T02:17:37.345Z,2.20
2023-03-06T02:18:41.785Z,2.20
2023-03-06T02:19:52.539Z,2.10
2023-03-06T02:20:58.449Z,2.20
2023-03-06T02:22:00.771Z,2.20
2023-03-06T02:23:08.032Z,2.20
2023-03-06T02:24:21.083Z,2.20
2023-03-06T02:25:34.284Z,2.20
2023-03-06T02:26:37.887Z,2.20
2023-03-06T02:27:42.211Z,2.20
2023-03-06T02:28:44.301Z,2.20
2023-03-06T02:29:48.614Z,2.10
2023-03-06T02:30:52.926Z,2.20
2023-03-06T02:31:56.434Z,2.10
2023-03-06T02:32:59.371Z,2.10
2023-03-06T02:34:05.318Z,2.00
2023-03-06T02:35:18.725Z,2.00
2023-03-06T02:36:20.843Z,2.00
2023-03-06T02:37:26.207Z,2.00
2023-03-06T02:38:34.247Z,1.90
2023-03-06T02:39:42.265Z,1.90
2023-03-06T02:40:50.250Z,1.90
2023-03-06T02:41:52.502Z,1.90
2023-03-06T02:42:59.086Z,1.80
2023-03-06T02:44:01.260Z,1.80
2023-03-06T02:45:10.852Z,1.80
2023-03-06T02:46:13.039Z,1.80
2023-03-06T02:47:16.141Z,1.80
2023-03-06T02:48:19.575Z,1.80
2023-03-06T02:49:24.368Z,1.80
2023-03-06T02:50:27.648Z,1.70
2023-03-06T02:51:30.691Z,1.70
2023-03-06T02:52:33.465Z,1.70
2023-03-06T02:53:36.649Z,1.70
2023-03-06T02:54:38.791Z,1.70
2023-03-06T02:55:43.466Z,1.80
2023-03-06T02:56:47.007Z,1.80
2023-03-06T02:57:50.328Z,1.80
2023-03-06T02:58:52.458Z,1.80
2023-03-06T02:59:56.627Z,1.80
2023-03-06T03:00:59.294Z,1.70
2023-03-06T03:02:02.781Z,1.70
2023-03-06T03:03:06.426Z,1.70
2023-03-06T03:04:09.756Z,1.70
2023-03-06T03:05:12.873Z,1.70
2023-03-06T03:06:18.565Z,1.70
2023-03-06T03:07:20.650Z,1.70
2023-03-06T03:08:23.983Z,1.70
2023-03-06T03:09:36.666Z,1.70
2023-03-06T03:10:39.795Z,1.70
2023-03-06T03:11:42.133Z,1.70
2023-03-06T03:12:46.676Z,1.70
2023-03-06T03:13:49.355Z,1.70
2023-03-06T03:14:57.814Z,1.70
2023-03-06T03:16:01.612Z,1.70
2023-03-06T03:17:05.072Z,1.70
2023-03-06T03:18:07.134Z,1.70
2023-03-06T03:19:10.244Z,1.70
2023-03-06T03:20:15.512Z,1.60
2023-03-06T03:21:19.284Z,1.60
2023-03-06T03:22:23.256Z,1.60
2023-03-06T03:23:27.073Z,1.70
2023-03-06T03:24:32.934Z,1.70
2023-03-06T03:25:37.049Z,1.70
2023-03-06T03:26:39.328Z,1.60
2023-03-06T03:27:51.617Z,1.70
2023-03-06T03:28:54.977Z,1.60
2023-03-06T03:29:58.866Z,1.60
2023-03-06T03:31:03.568Z,1.60
2023-03-06T03:32:08.265Z,1.60
2023-03-06T03:33:11.766Z,1.70
2023-03-06T03:34:15.697Z,1.70
2023-03-06T03:35:18.531Z,1.60
2023-03-06T03:36:23.117Z,1.60
2023-03-06T03:37:25.288Z,1.60
2023-03-06T03:38:28.852Z,1.60
2023-03-06T03:39:31.366Z,1.70
2023-03-06T03:40:34.646Z,1.70
2023-03-06T03:41:36.796Z,1.70
2023-03-06T03:42:43.316Z,1.70
2023-03-06T03:43:47.481Z,1.70
2023-03-06T03:44:50.751Z,1.70
2023-03-06T03:45:55.717Z,1.70
2023-03-06T03:46:59.642Z,1.70
2023-03-06T03:48:01.733Z,1.80
2023-03-06T03:49:05.309Z,1.70
2023-03-06T03:50:08.576Z,1.70
2023-03-06T03:51:14.042Z,1.70
2023-03-06T03:52:20.336Z,1.70
2023-03-06T03:53:23.645Z,1.70
2023-03-06T03:54:25.880Z,1.70
2023-03-06T03:55:32.229Z,1.70
2023-03-06T03:56:34.622Z,1.70
2023-03-06T03:57:43.540Z,1.70
2023-03-06T03:58:47.992Z,1.70
2023-03-06T03:59:51.443Z,1.70
2023-03-06T04:01:12.302Z,1.70
2023-03-06T04:02:15.959Z,1.70
2023-03-06T04:03:29.003Z,1.70
2023-03-06T04:04:32.480Z,1.70
2023-03-06T04:05:35.017Z,1.70
2023-03-06T04:06:40.373Z,1.70
2023-03-06T04:07:43.387Z,1.70
2023-03-06T04:08:46.767Z,1.80
2023-03-06T04:09:49.088Z,1.80
2023-03-06T04:10:52.979Z,1.70
2023-03-06T04:11:55.183Z,1.70
2023-03-06T04:12:58.895Z,1.70
2023-03-06T04:14:03.437Z,1.60
2023-03-06T04:15:09.323Z,1.60
2023-03-06T04:16:11.542Z,1.70
2023-03-06T04:17:16.013Z,1.70
2023-03-06T04:18:18.660Z,1.70
2023-03-06T04:19:22.145Z,1.70
2023-03-06T04:20:24.746Z,1.70
2023-03-06T04:21:30.552Z,1.70
2023-03-06T04:22:32.655Z,1.70
2023-03-06T04:23:36.462Z,1.70
2023-03-06T04:24:39.068Z,1.80
2023-03-06T04:25:42.836Z,1.80
2023-03-06T04:26:47.017Z,1.80
2023-03-06T04:27:50.235Z,1.80
2023-03-06T04:28:52.692Z,1.80
2023-03-06T04:29:58.287Z,1.80
2023-03-06T04:31:00.414Z,1.80
2023-03-06T04:32:04.085Z,1.80
2023-03-06T04:33:06.584Z,1.80
2023-03-06T04:34:09.868Z,1.80
2023-03-06T04:35:12.398Z,1.70
2023-03-06T04:36:29.986Z,1.70
2023-03-06T04:37:35.849Z,1.70
2023-03-06T04:38:38.930Z,1.70
2023-03-06T04:39:41.152Z,1.70
2023-03-06T04:40:45.013Z,1.70
2023-03-06T04:41:47.470Z,1.70
2023-03-06T04:42:50.841Z,1.70
2023-03-06T04:43:53.004Z,1.60
2023-03-06T04:44:57.523Z,1.60
2023-03-06T04:45:59.751Z,1.60
2023-03-06T04:47:02.841Z,1.60
2023-03-06T04:48:05.352Z,1.60
2023-03-06T04:49:08.519Z,1.60
2023-03-06T04:50:11.394Z,1.60
2023-03-06T04:51:15.583Z,1.70
2023-03-06T04:52:17.684Z,1.70
2023-03-06T04:53:21.772Z,1.70
2023-03-06T04:54:23.908Z,1.70
2023-03-06T04:55:27.301Z,1.70
2023-03-06T04:56:29.949Z,1.70
2023-03-06T04:57:33.076Z,1.70
2023-03-06T04:58:35.219Z,1.70
2023-03-06T04:59:39.304Z,1.70
2023-03-06T05:00:42.841Z,1.70
2023-03-06T05:01:45.912Z,1.70
2023-03-06T05:02:49.123Z,1.70
2023-03-06T05:03:52.250Z,1.70
2023-03-06T05:04:54.355Z,1.70
2023-03-06T05:05:57.460Z,1.70
2023-03-06T05:06:59.685Z,1.70
2023-03-06T05:08:02.855Z,1.70
2023-03-06T05:09:05.010Z,1.70
2023-03-06T05:10:09.697Z,1.70
2023-03-06T05:11:12.887Z,1.70
2023-03-06T05:12:14.998Z,1.70
2023-03-06T05:13:18.084Z,1.70
2023-03-06T05:14:20.248Z,1.70
2023-03-06T05:15:23.446Z,1.70
2023-03-06T05:16:27.027Z,1.70
2023-03-06T05:17:30.253Z,1.70
2023-03-06T05:18:33.039Z,1.70
2023-03-06T05:19:36.106Z,1.70
2023-03-06T05:20:38.291Z,1.70
2023-03-06T05:21:41.469Z,1.70
2023-03-06T05:22:44.819Z,1.70
2023-03-06T05:23:48.368Z,1.70
2023-03-06T05:24:50.618Z,1.70
2023-03-06T05:25:53.821Z,1.60
2023-03-06T05:26:55.999Z,1.70
2023-03-06T05:27:59.570Z,1.60
2023-03-06T05:29:01.870Z,1.60
2023-03-06T05:30:06.135Z,1.60
2023-03-06T05:31:08.752Z,1.60
2023-03-06T05:32:13.491Z,1.60
2023-03-06T05:33:15.613Z,1.60
2023-03-06T05:34:19.112Z,1.60
2023-03-06T05:35:23.986Z,1.60
2023-03-06T05:36:26.384Z,1.60
2023-03-06T05:37:29.520Z,1.60
2023-03-06T05:38:32.657Z,1.60
2023-03-06T05:39:35.794Z,1.60
2023-03-06T05:40:40.817Z,1.60
2023-03-06T05:41:43.884Z,1.50
2023-03-06T05:42:46.260Z,1.40
2023-03-06T05:43:49.405Z,1.30
2023-03-06T05:44:51.614Z,1.30
2023-03-06T05:46:02.721Z,1.20
2023-03-06T05:47:05.243Z,1.10
2023-03-06T05:48:10.457Z,1.10
2023-03-06T05:49:12.529Z,1.10
2023-03-06T05:50:15.632Z,1.20
2023-03-06T05:51:17.799Z,1.20
2023-03-06T05:52:20.967Z,1.20
2023-03-06T05:53:23.098Z,1.30
2023-03-06T05:54:26.678Z,1.30
2023-03-06T05:55:28.867Z,1.30
2023-03-06T05:56:32.001Z,1.30
2023-03-06T05:57:34.185Z,1.20
2023-03-06T05:58:38.337Z,1.20
2023-03-06T05:59:40.368Z,1.20
2023-03-06T06:00:43.448Z,1.20
2023-03-06T06:01:45.525Z,1.30
2023-03-06T06:02:48.589Z,1.30
2023-03-06T06:03:52.442Z,1.30
2023-03-06T06:04:55.602Z,1.40
2023-03-06T06:05:57.684Z,1.40
2023-03-06T06:07:01.935Z,1.40
2023-03-06T06:08:04.098Z,1.40
2023-03-06T06:09:07.212Z,1.40
2023-03-06T06:10:11.405Z,1.50
2023-03-06T06:11:14.670Z,1.50
2023-03-06T06:12:16.862Z,1.50
2023-03-06T06:13:20.026Z,1.60
2023-03-06T06:14:22.832Z,1.60
2023-03-06T06:15:29.033Z,1.60
2023-03-06T06:16:31.107Z,1.60
2023-03-06T06:17:34.250Z,1.70
2023-03-06T06:18:37.318Z,1.70
2023-03-06T06:19:43.331Z,1.70
2023-03-06T06:20:45.428Z,1.70
2023-03-06T06:21:50.380Z,1.70
2023-03-06T06:22:52.545Z,1.80
2023-03-06T06:23:55.686Z,1.80
2023-03-06T06:24:59.075Z,1.80
2023-03-06T06:26:02.072Z,1.80
2023-03-06T06:27:06.111Z,1.80
2023-03-06T06:28:08.230Z,1.90
2023-03-06T06:29:12.019Z,1.90
2023-03-06T06:30:15.513Z,1.90
2023-03-06T06:31:18.732Z,2.00
2023-03-06T06:32:22.222Z,1.90
2023-03-06T06:33:25.989Z,2.00
2023-03-06T06:34:28.556Z,2.00
2023-03-06T06:35:37.205Z,2.00
2023-03-06T06:36:39.870Z,2.00
2023-03-06T06:37:42.907Z,2.10
2023-03-06T06:38:45.392Z,2.10
2023-03-06T06:39:48.681Z,2.10
2023-03-06T06:41:25.479Z,2.10
2023-03-06T06:42:32.006Z,2.10
2023-03-06T06:43:36.072Z,2.10
2023-03-06T06:44:39.316Z,2.20
2023-03-06T06:45:44.056Z,2.20
2023-03-06T06:48:11.780Z,2.20
2023-03-06T06:49:14.222Z,2.20
2023-03-06T06:50:17.580Z,2.30
2023-03-06T06:51:22.107Z,2.30
2023-03-06T06:52:25.993Z,2.30
2023-03-06T06:53:28.299Z,2.30
2023-03-06T06:54:31.490Z,2.40
2023-03-06T06:55:33.590Z,2.50
2023-03-06T06:56:36.720Z,3.30
2023-03-06T06:57:40.902Z,4.10
2023-03-06T06:58:43.110Z,4.50
2023-03-06T06:59:46.435Z,4.60
2023-03-06T07:00:49.525Z,4.60
2023-03-06T07:01:51.957Z,4.60
2023-03-06T07:02:55.128Z,4.40
2023-03-06T07:03:57.511Z,4.40
2023-03-06T07:05:04.518Z,4.20
2023-03-06T07:06:07.589Z,4.30
2023-03-06T07:07:12.118Z,4.30
2023-03-06T07:08:14.184Z,4.20
2023-03-06T07:09:17.401Z,4.30
2023-03-06T07:10:21.215Z,4.30
2023-03-06T07:11:23.456Z,4.20
2023-03-06T07:12:26.802Z,4.40
2023-03-06T07:13:28.925Z,4.60
2023-03-06T07:14:31.923Z,4.60
2023-03-06T07:15:35.009Z,4.80
2023-03-06T07:16:38.241Z,4.90
2023-03-06T07:17:40.309Z,5.20
2023-03-06T07:18:43.453Z,5.40
2023-03-06T07:19:45.523Z,5.30
2023-03-06T07:20:48.842Z,5.10
2023-03-06T07:21:51.132Z,4.90
2023-03-06T07:22:55.745Z,4.80
2023-03-06T07:23:58.104Z,4.60
2023-03-06T07:25:01.384Z,4.60
2023-03-06T07:26:04.158Z,4.40
2023-03-06T07:27:07.370Z,4.30
2023-03-06T07:28:10.481Z,4.20
2023-03-06T07:29:13.660Z,4.30
2023-03-06T07:30:15.981Z,4.10
2023-03-06T07:31:19.274Z,4.10
2023-03-06T07:32:21.552Z,4.10
2023-03-06T07:33:24.712Z,4.10
2023-03-06T07:34:26.816Z,4.10
2023-03-06T07:35:29.956Z,4.10
2023-03-06T07:36:33.545Z,4.10
2023-03-06T07:37:35.633Z,4.10
2023-03-06T07:38:40.136Z,4.10
2023-03-06T07:39:43.346Z,4.10
2023-03-06T07:40:50.563Z,4.10
2023-03-06T07:41:53.712Z,4.00
2023-03-06T07:43:09.118Z,4.00
2023-03-06T07:44:23.718Z,4.00
2023-03-06T07:45:27.836Z,4.00
2023-03-06T07:46:31.184Z,4.00
2023-03-06T07:47:33.278Z,4.00
2023-03-06T07:48:36.740Z,3.90
2023-03-06T07:49:40.106Z,3.90
2023-03-06T07:50:43.341Z,3.80
2023-03-06T07:51:46.468Z,3.70
2023-03-06T07:52:49.263Z,3.60
2023-03-06T07:53:53.797Z,3.60
2023-03-06T07:54:55.862Z,3.70
2023-03-06T07:55:59.174Z,3.60
2023-03-06T07:57:01.303Z,3.60
2023-03-06T07:58:04.603Z,3.50
2023-03-06T07:59:06.778Z,3.50
2023-03-06T08:00:12.795Z,3.50
2023-03-06T08:01:24.272Z,3.60
2023-03-06T08:02:26.531Z,3.50
2023-03-06T08:03:29.663Z,3.40
2023-03-06T08:04:31.878Z,3.50
2023-03-06T08:05:35.041Z,3.60
2023-03-06T08:06:37.218Z,3.60
2023-03-06T08:07:40.325Z,3.60
2023-03-06T08:08:45.794Z,3.70
2023-03-06T08:09:49.266Z,3.70
2023-03-06T08:10:52.322Z,3.70
2023-03-06T08:11:55.418Z,3.80
2023-03-06T08:12:58.541Z,3.80
2023-03-06T08:14:01.790Z,3.90
2023-03-06T08:15:04.410Z,3.90
2023-03-06T08:16:08.226Z,3.90
2023-03-06T08:17:11.290Z,3.90
2023-03-06T08:18:14.436Z,4.00
2023-03-06T08:19:17.523Z,4.00
2023-03-06T08:20:20.805Z,4.00
2023-03-06T08:21:26.258Z,4.00
2023-03-06T08:22:28.442Z,4.00
2023-03-06T08:23:31.780Z,4.00
2023-03-06T08:24:35.713Z,4.00
2023-03-06T08:25:40.198Z,4.00
2023-03-06T08:26:44.011Z,4.00
2023-03-06T08:27:47.446Z,4.00
2023-03-06T08:28:52.623Z,3.90
2023-03-06T08:29:54.708Z,3.90
2023-03-06T08:30:58.329Z,4.00
2023-03-06T08:32:01.543Z,4.00
2023-03-06T08:33:04.762Z,4.10
2023-03-06T08:34:09.142Z,4.20
2023-03-06T08:35:12.301Z,4.20
2023-03-06T08:36:14.352Z,4.20
2023-03-06T08:37:17.463Z,4.30
2023-03-06T08:38:19.575Z,4.30
2023-03-06T08:39:23.798Z,4.30
2023-03-06T08:40:30.409Z,4.40
2023-03-06T08:41:35.921Z,4.40
2023-03-06T08:42:38.015Z,4.40
2023-03-06T08:43:41.199Z,4.40
2023-03-06T08:44:44.602Z,4.50
2023-03-06T08:45:53.066Z,4.50
2023-03-06T08:46:56.226Z,4.40
2023-03-06T08:47:59.437Z,4.40
2023-03-06T08:49:01.629Z,4.50
2023-03-06T08:50:05.575Z,4.50
2023-03-06T08:51:09.123Z,4.60
2023-03-06T08:52:12.264Z,4.60
2023-03-06T08:53:14.694Z,4.60
2023-03-06T08:54:17.799Z,4.60
2023-03-06T08:55:19.969Z,4.50
2023-03-06T08:56:25.160Z,4.50
2023-03-06T08:57:29.752Z,4.60
2023-03-06T08:58:32.018Z,4.60
2023-03-06T08:59:35.404Z,4.50
2023-03-06T09:00:38.248Z,4.40
2023-03-06T09:01:41.732Z,4.50
2023-03-06T09:02:43.892Z,4.40
2023-03-06T09:03:47.190Z,4.30
2023-03-06T09:04:50.282Z,4.30
2023-03-06T09:05:52.307Z,4.40
2023-03-06T09:06:55.646Z,4.60
2023-03-06T09:07:57.913Z,4.60
2023-03-06T09:09:02.096Z,4.50
2023-03-06T09:10:05.778Z,4.50
2023-03-06T09:11:09.690Z,4.40
2023-03-06T09:12:13.056Z,4.60
2023-03-06T09:13:16.584Z,4.70
2023-03-06T09:14:19.784Z,4.80
2023-03-06T09:15:24.208Z,4.80
2023-03-06T09:16:26.734Z,4.90
2023-03-06T09:17:29.973Z,5.00
2023-03-06T09:18:32.041Z,5.00
2023-03-06T09:19:35.180Z,4.90
2023-03-06T09:20:37.242Z,5.00
2023-03-06T09:21:40.451Z,5.00
2023-03-06T09:22:45.511Z,5.00
2023-03-06T09:23:47.596Z,5.00
2023-03-06T09:24:50.785Z,5.10
2023-03-06T09:25:54.074Z,5.10
2023-03-06T09:26:57.305Z,5.20
2023-03-06T09:28:11.010Z,5.20
2023-03-06T09:29:17.534Z,5.20
2023-03-06T09:30:19.918Z,5.30
2023-03-06T09:31:23.031Z,5.40
2023-03-06T09:32:26.978Z,5.50
2023-03-06T09:33:31.248Z,5.60
2023-03-06T09:34:34.776Z,5.60
2023-03-06T09:35:42.558Z,5.50
2023-03-06T09:36:56.443Z,5.40
2023-03-06T09:38:00.378Z,5.30
2023-03-06T09:39:03.695Z,5.30
2023-03-06T09:40:06.679Z,5.20
2023-03-06T09:41:23.972Z,5.20
2023-03-06T09:42:28.547Z,5.10
2023-03-06T09:43:35.517Z,5.00
2023-03-06T09:44:43.251Z,5.00
2023-03-06T09:45:46.264Z,5.10
2023-03-06T09:47:08.278Z,4.90
2023-03-06T09:48:17.200Z,4.90
2023-03-06T09:49:51.164Z,4.80
2023-03-06T09:51:03.460Z,5.00
2023-03-06T09:52:18.149Z,5.10
2023-03-06T09:53:38.095Z,5.10
2023-03-06T09:54:46.163Z,5.10
2023-03-06T09:55:56.927Z,5.00
2023-03-06T09:57:00.136Z,5.10
2023-03-06T09:58:07.517Z,5.20
2023-03-06T09:59:17.651Z,5.40
2023-03-06T10:00:28.498Z,5.40
2023-03-06T10:01:35.427Z,5.40
2023-03-06T10:02:42.094Z,5.60
2023-03-06T10:03:49.622Z,5.60
2023-03-06T10:04:56.796Z,5.60
2023-03-06T10:06:02.924Z,5.40
2023-03-06T10:07:13.102Z,5.30
2023-03-06T10:08:24.697Z,5.30
2023-03-06T10:09:29.810Z,5.10
2023-03-06T10:10:41.785Z,5.00
2023-03-06T10:11:47.554Z,5.00
2023-03-06T10:12:58.888Z,4.90
2023-03-06T10:14:15.360Z,5.00
2023-03-06T10:15:22.407Z,5.00
2023-03-06T10:16:30.572Z,5.10
2023-03-06T10:17:37.571Z,5.20
2023-03-06T10:18:40.994Z,5.20
2023-03-06T10:19:44.204Z,5.30
2023-03-06T10:20:51.119Z,5.20
2023-03-06T10:21:59.536Z,5.30
2023-03-06T10:23:38.995Z,5.30
2023-03-06T10:24:49.845Z,5.20
2023-03-06T10:26:00.405Z,5.40
2023-03-06T10:27:16.275Z,5.40
2023-03-06T10:28:22.519Z,5.40
2023-03-06T10:29:43.667Z,5.40
2023-03-06T10:30:56.596Z,5.30
2023-03-06T10:32:09.330Z,5.00
2023-03-06T10:33:22.998Z,4.90
2023-03-06T10:34:30.868Z,4.90
2023-03-06T10:35:45.562Z,5.00
2023-03-06T10:36:48.799Z,5.10
2023-03-06T10:37:52.152Z,4.90
2023-03-06T10:38:56.941Z,4.90
2023-03-06T10:40:05.440Z,5.00
2023-03-06T10:41:20.956Z,5.00
2023-03-06T10:42:25.373Z,4.80
2023-03-06T10:43:28.320Z,4.80
2023-03-06T10:44:31.910Z,4.80
2023-03-06T10:45:48.534Z,4.80
2023-03-06T10:46:54.409Z,4.80
2023-03-06T10:48:12.097Z,4.90
2023-03-06T10:49:30.141Z,5.00
2023-03-06T10:50:32.290Z,5.10
2023-03-06T10:51:35.603Z,5.10
2023-03-06T10:52:38.666Z,5.10
2023-03-06T10:53:50.124Z,5.10
2023-03-06T10:54:53.259Z,5.10
2023-03-06T10:55:58.274Z,5.00
2023-03-06T10:57:18.752Z,4.80
2023-03-06T10:58:25.760Z,4.80
2023-03-06T10:59:29.274Z,4.80
2023-03-06T11:00:36.172Z,4.70
2023-03-06T11:01:39.362Z,4.80
2023-03-06T11:02:42.522Z,4.80
2023-03-06T11:03:47.722Z,4.90
2023-03-06T11:04:53.466Z,5.00
2023-03-06T11:06:02.234Z,5.10
2023-03-06T11:07:18.109Z,5.10
2023-03-06T11:08:23.092Z,5.10
2023-03-06T11:09:26.398Z,5.00
2023-03-06T11:10:31.045Z,5.00
2023-03-06T11:11:37.833Z,5.10
2023-03-06T11:12:43.507Z,5.10
2023-03-06T11:13:58.091Z,5.00
2023-03-06T11:15:17.645Z,5.10
2023-03-06T11:16:27.729Z,5.30
2023-03-06T11:17:32.045Z,5.40
2023-03-06T11:18:40.640Z,5.40
2023-03-06T11:19:44.257Z,5.50
2023-03-06T11:20:56.456Z,5.50
2023-03-06T11:22:03.915Z,5.70
2023-03-06T11:23:11.043Z,5.90
2023-03-06T11:24:19.903Z,5.90
2023-03-06T11:25:26.460Z,5.90
2023-03-06T11:26:46.053Z,6.00
2023-03-06T11:27:55.233Z,6.10
2023-03-06T11:29:25.866Z,6.20
2023-03-06T11:30:35.958Z,6.30
2023-03-06T11:31:43.786Z,6.40
2023-03-06T11:32:54.027Z,6.40
2023-03-06T11:34:03.370Z,6.60
2023-03-06T11:35:13.325Z,6.40
2023-03-06T11:36:19.819Z,6.00
2023-03-06T11:37:30.775Z,5.90
2023-03-06T11:38:43.494Z,5.80
2023-03-06T11:39:54.742Z,5.70
2023-03-06T11:41:00.821Z,5.70
2023-03-06T11:42:10.933Z,5.60
2023-03-06T11:43:21.074Z,5.50
2023-03-06T11:44:31.890Z,5.50
2023-03-06T11:45:43.381Z,5.40
2023-03-06T11:46:52.673Z,5.50
2023-03-06T11:48:03.360Z,5.60
2023-03-06T11:49:16.828Z,5.60
2023-03-06T11:50:28.813Z,5.60
2023-03-06T11:51:36.402Z,5.60
2023-03-06T11:52:48.626Z,5.50
2023-03-06T11:53:51.744Z,5.50
2023-03-06T11:54:56.434Z,5.30
2023-03-06T11:56:07.368Z,5.20
2023-03-06T11:57:18.755Z,4.90
2023-03-06T11:58:54.679Z,4.80
2023-03-06T12:00:13.788Z,4.80
2023-03-06T12:01:28.337Z,4.70
2023-03-06T12:02:43.873Z,4.60
2023-03-06T12:03:55.824Z,4.50
2023-03-06T12:05:26.116Z,4.30
2023-03-06T12:06:38.477Z,4.30
2023-03-06T12:07:48.732Z,4.30
2023-03-06T12:09:04.948Z,4.40
2023-03-06T12:10:17.968Z,4.40
2023-03-06T12:11:24.036Z,4.40
2023-03-06T12:12:45.213Z,4.30
2023-03-06T12:14:12.524Z,4.30
2023-03-06T12:15:33.150Z,4.20
2023-03-06T12:17:22.743Z,4.20
2023-03-06T12:18:36.497Z,4.20
2023-03-06T12:19:52.232Z,4.20
2023-03-06T12:21:04.276Z,4.30
2023-03-06T12:22:22.701Z,4.30
2023-03-06T12:23:45.647Z,4.30
2023-03-06T12:25:02.311Z,4.40
2023-03-06T12:26:17.293Z,4.40
2023-03-06T12:27:29.009Z,4.40
2023-03-06T12:28:55.452Z,4.30
2023-03-06T12:30:24.305Z,4.40
2023-03-06T12:31:44.082Z,4.30
2023-03-06T12:32:52.502Z,4.50
2023-03-06T12:34:07.908Z,4.50
2023-03-06T12:35:34.790Z,4.50
2023-03-06T12:36:50.370Z,4.60
2023-03-06T12:38:02.620Z,4.60
2023-03-06T12:39:10.608Z,4.60
2023-03-06T12:40:38.091Z,4.60
2023-03-06T12:42:02.507Z,4.60
2023-03-06T12:43:51.506Z,4.70
2023-03-06T12:45:27.882Z,4.80
2023-03-06T12:46:30.570Z,5.00
2023-03-06T12:47:42.266Z,5.00
2023-03-06T12:48:48.840Z,5.10
2023-03-06T12:49:55.845Z,5.20
2023-03-06T12:50:58.902Z,5.20
2023-03-06T12:52:05.684Z,5.20
2023-03-06T12:53:13.931Z,5.20
2023-03-06T12:54:16.602Z,5.20
2023-03-06T12:55:24.333Z,5.10
2023-03-06T12:56:29.732Z,5.10
2023-03-06T12:57:32.928Z,5.00
2023-03-06T12:58:48.999Z,4.80
2023-03-06T12:59:53.005Z,4.80
2023-03-06T13:01:05.897Z,4.80
2023-03-06T13:02:27.428Z,4.90
2023-03-06T13:03:39.287Z,4.80
2023-03-06T13:05:06.446Z,4.90
2023-03-06T13:06:51.705Z,5.00
2023-03-06T13:08:09.784Z,5.00
2023-03-06T13:09:19.368Z,5.00
2023-03-06T13:10:26.613Z,4.90
2023-03-06T13:11:45.386Z,4.90
2023-03-06T13:12:55.752Z,4.70
2023-03-06T13:13:57.929Z,4.80
2023-03-06T13:15:02.557Z,4.90
2023-03-06T13:16:15.382Z,4.90
2023-03-06T13:17:38.558Z,4.90
2023-03-06T13:18:55.277Z,4.90
2023-03-06T13:20:43.802Z,4.90
2023-03-06T13:22:26.608Z,4.90
2023-03-06T13:23:53.498Z,4.90
2023-03-06T13:25:39.987Z,4.80
2023-03-06T13:26:51.274Z,4.80
2023-03-06T13:28:03.278Z,4.70
2023-03-06T13:29:59.571Z,4.60
2023-03-06T13:31:02.842Z,4.60
2023-03-06T13:32:16.795Z,4.60
2023-03-06T13:33:58.620Z,4.50
2023-03-06T13:35:00.795Z,4.50
2023-03-06T13:36:23.411Z,4.40
2023-03-06T13:37:56.132Z,4.40
2023-03-06T13:39:03.076Z,4.40
2023-03-06T13:40:25.865Z,4.40
2023-03-06T13:41:54.038Z,4.50
2023-03-06T13:43:19.740Z,4.50
2023-03-06T13:44:44.751Z,4.40
2023-03-06T13:45:49.200Z,4.50
2023-03-06T13:46:57.710Z,4.50
2023-03-06T13:48:24.987Z,4.50
2023-03-06T13:49:26.673Z,4.30
2023-03-06T13:50:36.922Z,4.30
2023-03-06T13:51:43.062Z,4.30
2023-03-06T13:52:57.492Z,4.30
2023-03-06T13:54:27.489Z,4.30
2023-03-06T13:55:41.367Z,4.20
2023-03-06T13:57:15.619Z,4.10
2023-03-06T13:58:33.155Z,4.10
2023-03-06T14:00:08.405Z,4.10
2023-03-06T14:01:34.342Z,4.00
2023-03-06T14:03:10.707Z,4.10
2023-03-06T14:04:39.918Z,4.20
2023-03-06T14:05:44.879Z,4.30
2023-03-06T14:06:52.940Z,4.30
2023-03-06T14:08:06.398Z,4.20
2023-03-06T14:09:19.161Z,4.20
2023-03-06T14:10:25.770Z,4.20
2023-03-06T14:11:27.946Z,4.20
2023-03-06T14:12:34.729Z,4.20
2023-03-06T14:13:48.355Z,4.20
2023-03-06T14:14:55.511Z,4.20
2023-03-06T14:15:58.951Z,4.30
2023-03-06T14:17:05.156Z,4.30
2023-03-06T14:18:17.256Z,4.40
2023-03-06T14:19:20.136Z,4.30
2023-03-06T14:20:33.018Z,4.30
2023-03-06T14:21:42.964Z,4.20
2023-03-06T14:22:45.184Z,4.20
2023-03-06T14:23:48.627Z,4.20
2023-03-06T14:25:00.026Z,4.30
2023-03-06T14:26:17.465Z,4.30
2023-03-06T14:27:19.814Z,4.40
2023-03-06T14:28:26.771Z,4.40
2023-03-06T14:29:31.301Z,4.50
2023-03-06T14:30:33.506Z,4.60
2023-03-06T14:31:42.187Z,4.60
2023-03-06T14:32:46.272Z,4.60
2023-03-06T14:33:54.437Z,4.50
2023-03-06T14:34:56.710Z,4.50
2023-03-06T14:36:02.565Z,4.50
2023-03-06T14:37:10.085Z,4.50
2023-03-06T14:38:14.477Z,4.50
2023-03-06T14:39:23.054Z,4.60
2023-03-06T14:40:32.242Z,4.50
2023-03-06T14:41:37.972Z,4.50
2023-03-06T14:42:40.295Z,4.50
2023-03-06T14:43:43.484Z,4.50
2023-03-06T14:44:47.362Z,4.40
2023-03-06T14:45:52.033Z,4.50
2023-03-06T14:46:57.558Z,4.40
2023-03-06T14:47:59.708Z,4.40
2023-03-06T14:49:07.283Z,4.40